Southernpec 3 — V7RY8 — position and weather

sailwx.info

Track history (hours):
 
Tides and Currents Weather Stations Pressure Air Temp Water Temp Dewpoint Dewpoint Depression Visibility Wind Speed Wind Dir Waves Ship Positions

Southernpec 3

Last reported at 2018-Jun-08 23:40 UTC. Time now 2018-Jun-25 02:27 UTC.
Position N 35°37' E 015°26'.
Warning: this ship's position is 16 days out of date.

Length 328 m; draft 12 m.

Type: Tanker. MMSI: 538003604.

Date/timePositionNaut miles runAvg speedWind from/ knotsBaromVisibWave heightAir tempDewpointWater temp
2018-Jun-08 23:40N 35°37' E 015°26'411.4
2018-Jun-08 23:22N 35°38' E 015°22'411.4
2018-Jun-08 23:00N 35°39' E 015°17'611.3
2018-Jun-08 22:28N 35°40' E 015°10'611.3
2018-Jun-08 21:59N 35°41' E 015°03'511.3
2018-Jun-08 21:30N 35°42' E 014°57'611.2
2018-Jun-08 21:00N 35°44' E 014°50'611.1
2018-Jun-08 20:30N 35°45' E 014°44'510.7
2018-Jun-08 20:00N 35°49' E 014°38'3 4.5
2018-Jun-08 19:25N 35°51' E 014°36'0 0.2
2018-Jun-08 18:55N 35°50' E 014°36'0 0.0
2018-Jun-08 18:28N 35°50' E 014°36'0 0.0
2018-Jun-08 17:58N 35°50' E 014°36'0 0.0
2018-Jun-08 17:22N 35°50' E 014°36'0 0.0
2018-Jun-08 14:20N 35°50' E 014°36'0 0.1
2018-Jun-08 13:58N 35°50' E 014°36'1 0.8
2018-Jun-08 13:04N 35°50' E 014°37'1 5.3
2018-Jun-08 12:51N 35°50' E 014°38'1 1.7
2018-Jun-08 12:27N 35°50' E 014°39'2 3.6
2018-Jun-08 11:54N 35°49' E 014°41'4 9.4
2018-Jun-08 11:30N 35°53' E 014°42'710.0
2018-Jun-08 10:46N 35°59' E 014°46'310.4
2018-Jun-08 10:27N 36°02' E 014°48'510.4
2018-Jun-08 10:00N 36°06' E 014°52'2 4.9
2018-Jun-08 09:30N 36°08' E 014°53'0 0.8
2018-Jun-08 09:00N 36°09' E 014°53'0 0.8
2018-Jun-08 08:30N 36°08' E 014°52'3 6.6
2018-Jun-08 08:00N 36°06' E 014°51'4 8.9
2018-Jun-08 07:30N 36°02' E 014°48'1 2.3
2018-Jun-08 07:00N 36°01' E 014°48'1 1.0
2018-Jun-08 06:29N 36°01' E 014°48'75 4.4
2018-Jun-07 13:21N 36°32' E 013°23'5 8.4
2018-Jun-07 12:44N 36°34' E 013°17'2 8.0
2018-Jun-07 12:30N 36°35' E 013°15'4 8.1
2018-Jun-07 12:00N 36°37' E 013°10'4 8.1
2018-Jun-07 11:30N 36°38' E 013°06'4 8.2
2018-Jun-07 11:00N 36°40' E 013°01'4 8.3
2018-Jun-07 10:30N 36°42' E 012°56'5 8.6
2018-Jun-07 09:57N 36°44' E 012°51'6 9.1
2018-Jun-07 09:16N 36°46' E 012°44'16 9.7
2018-Jun-07 07:38N 36°53' E 012°26'210.4
2018-Jun-07 07:29N 36°54' E 012°24'  
2018-Jun-04 22:54N 36°43' W 000°36'411.1
2018-Jun-04 22:30N 36°42' W 000°41'21012.0
2018-Jun-04 04:58N 36°02' W 004°58'613.3
2018-Jun-04 04:30N 36°01' W 005°05'714.7
2018-Jun-04 04:00N 35°60' W 005°14'714.4
2018-Jun-04 03:30N 35°58' W 005°23'713.2
2018-Jun-04 03:01N 35°56' W 005°31'711.8
2018-Jun-04 02:27N 35°54' W 005°38'510.6
2018-Jun-04 02:00N 35°54' W 005°44'  
2018-Jun-01 17:40N 29°28' W 014°34'510.7
2018-Jun-01 17:12N 29°25' W 014°38'210.8
2018-Jun-01 16:59N 29°23' W 014°40'510.7
2018-Jun-01 16:29N 29°20' W 014°44'710.6
2018-Jun-01 15:49N 29°15' W 014°50'310.5
2018-Jun-01 15:30N 29°13' W 014°53'510.6
2018-Jun-01 15:01N 29°09' W 014°58'510.7
2018-Jun-01 14:31N 29°05' W 015°02'510.7
2018-Jun-01 14:01N 29°02' W 015°06'510.8
2018-Jun-01 13:31N 28°58' W 015°11'610.8
2018-Jun-01 13:00N 28°54' W 015°16'510.6
2018-Jun-01 12:30N 28°51' W 015°20'510.5
2018-Jun-01 12:00N 28°47' W 015°25'510.5
2018-Jun-01 11:30N 28°44' W 015°29'510.4
2018-Jun-01 11:00N 28°40' W 015°33'510.5
2018-Jun-01 10:30N 28°37' W 015°38'510.5
2018-Jun-01 10:00N 28°33' W 015°42'510.5
2018-Jun-01 09:30N 28°29' W 015°46'510.3
2018-Jun-01 09:00N 28°25' W 015°50'510.2
2018-Jun-01 08:30N 28°21' W 015°53'510.1
2018-Jun-01 08:00N 28°17' W 015°57'510.0
2018-Jun-01 07:31N 28°14' W 016°01'5 9.9
2018-Jun-01 06:58N 28°10' W 016°05'  
Track history (hours):
 
Tides and Currents Weather Stations Pressure Air Temp Water Temp Dewpoint Dewpoint Depression Visibility Wind Speed Wind Dir Waves Ship Positions

Southernpec 3

Last reported at 2018-Jun-08 23:40 UTC. Time now 2018-Jun-25 02:27 UTC.
Position N 35°37' E 015°26'.
Warning: this ship's position is 16 days out of date.

Length 328 m; draft 12 m.

Type: Tanker. MMSI: 538003604.

Date/timePositionNaut miles runAvg speedWind from/ knotsBaromVisibWave heightAir tempDewpointWater temp
2018-Jun-08 23:40N 35°37' E 015°26'411.4
2018-Jun-08 23:22N 35°38' E 015°22'411.4
2018-Jun-08 23:00N 35°39' E 015°17'611.3
2018-Jun-08 22:28N 35°40' E 015°10'611.3
2018-Jun-08 21:59N 35°41' E 015°03'511.3
2018-Jun-08 21:30N 35°42' E 014°57'611.2
2018-Jun-08 21:00N 35°44' E 014°50'611.1
2018-Jun-08 20:30N 35°45' E 014°44'510.7
2018-Jun-08 20:00N 35°49' E 014°38'3 4.5
2018-Jun-08 19:25N 35°51' E 014°36'0 0.2
2018-Jun-08 18:55N 35°50' E 014°36'0 0.0
2018-Jun-08 18:28N 35°50' E 014°36'0 0.0
2018-Jun-08 17:58N 35°50' E 014°36'0 0.0
2018-Jun-08 17:22N 35°50' E 014°36'0 0.0
2018-Jun-08 14:20N 35°50' E 014°36'0 0.1
2018-Jun-08 13:58N 35°50' E 014°36'1 0.8
2018-Jun-08 13:04N 35°50' E 014°37'1 5.3
2018-Jun-08 12:51N 35°50' E 014°38'1 1.7
2018-Jun-08 12:27N 35°50' E 014°39'2 3.6
2018-Jun-08 11:54N 35°49' E 014°41'4 9.4
2018-Jun-08 11:30N 35°53' E 014°42'710.0
2018-Jun-08 10:46N 35°59' E 014°46'310.4
2018-Jun-08 10:27N 36°02' E 014°48'510.4
2018-Jun-08 10:00N 36°06' E 014°52'2 4.9
2018-Jun-08 09:30N 36°08' E 014°53'0 0.8
2018-Jun-08 09:00N 36°09' E 014°53'0 0.8
2018-Jun-08 08:30N 36°08' E 014°52'3 6.6
2018-Jun-08 08:00N 36°06' E 014°51'4 8.9
2018-Jun-08 07:30N 36°02' E 014°48'1 2.3
2018-Jun-08 07:00N 36°01' E 014°48'1 1.0
2018-Jun-08 06:29N 36°01' E 014°48'75 4.4
2018-Jun-07 13:21N 36°32' E 013°23'5 8.4
2018-Jun-07 12:44N 36°34' E 013°17'2 8.0
2018-Jun-07 12:30N 36°35' E 013°15'4 8.1
2018-Jun-07 12:00N 36°37' E 013°10'4 8.1
2018-Jun-07 11:30N 36°38' E 013°06'4 8.2
2018-Jun-07 11:00N 36°40' E 013°01'4 8.3
2018-Jun-07 10:30N 36°42' E 012°56'5 8.6
2018-Jun-07 09:57N 36°44' E 012°51'6 9.1
2018-Jun-07 09:16N 36°46' E 012°44'16 9.7
2018-Jun-07 07:38N 36°53' E 012°26'210.4
2018-Jun-07 07:29N 36°54' E 012°24'  
2018-Jun-04 22:54N 36°43' W 000°36'411.1
2018-Jun-04 22:30N 36°42' W 000°41'21012.0
2018-Jun-04 04:58N 36°02' W 004°58'613.3
2018-Jun-04 04:30N 36°01' W 005°05'714.7
2018-Jun-04 04:00N 35°60' W 005°14'714.4
2018-Jun-04 03:30N 35°58' W 005°23'713.2
2018-Jun-04 03:01N 35°56' W 005°31'711.8
2018-Jun-04 02:27N 35°54' W 005°38'510.6
2018-Jun-04 02:00N 35°54' W 005°44'  
2018-Jun-01 17:40N 29°28' W 014°34'510.7
2018-Jun-01 17:12N 29°25' W 014°38'210.8
2018-Jun-01 16:59N 29°23' W 014°40'510.7
2018-Jun-01 16:29N 29°20' W 014°44'710.6
2018-Jun-01 15:49N 29°15' W 014°50'310.5
2018-Jun-01 15:30N 29°13' W 014°53'510.6
2018-Jun-01 15:01N 29°09' W 014°58'510.7
2018-Jun-01 14:31N 29°05' W 015°02'510.7
2018-Jun-01 14:01N 29°02' W 015°06'510.8
2018-Jun-01 13:31N 28°58' W 015°11'610.8
2018-Jun-01 13:00N 28°54' W 015°16'510.6
2018-Jun-01 12:30N 28°51' W 015°20'510.5
2018-Jun-01 12:00N 28°47' W 015°25'510.5
2018-Jun-01 11:30N 28°44' W 015°29'510.4
2018-Jun-01 11:00N 28°40' W 015°33'510.5
2018-Jun-01 10:30N 28°37' W 015°38'510.5
2018-Jun-01 10:00N 28°33' W 015°42'510.5
2018-Jun-01 09:30N 28°29' W 015°46'510.3
2018-Jun-01 09:00N 28°25' W 015°50'510.2
2018-Jun-01 08:30N 28°21' W 015°53'510.1
2018-Jun-01 08:00N 28°17' W 015°57'510.0
2018-Jun-01 07:31N 28°14' W 016°01'5 9.9
2018-Jun-01 06:58N 28°10' W 016°05'  

Dump ship's entire track history